OEKM

King Khaled Air Base Airport

Saudi Arabia
TAF OEKM 212300Z 2200/2306 VRB03KT 7000 FEW020 TEMPO 2200/2206 3000 BR BECMG 2206/2208 23012KT TEMPO 2210/2216 SCT020 FEW025CB
Issued Valid From Valid To
Jan-21 @ 23:00 UTC
(an hour ago)
Jan-22 @ 00:00 UTC
(13 minutes ago)
Jan-23 @ 06:00 UTC
(-1 days ago)
Jan-22 @ 00:00 to Jan-22 @ 06:00
TAF OEKM 212300Z 2200/2306 VRB03KT 7000 FEW020
Wind Visibility Clouds
Variable at 3 knots 7,001 meters
  • Few at 2,000' AGL
Temporary Jan-22 @ 00:00 to Jan-22 @ 06:00
TEMPO 2200/2206 3000 BR
Visibility Conditions
2,993 meters
  • Mist
Becoming Jan-22 @ 06:00 to Jan-23 @ 06:00
BECMG 2206/2208 23012KT
Wind Visibility Clouds
230° at 12 knots 7,001 meters
  • Few at 2,000' AGL
Temporary Jan-22 @ 10:00 to Jan-22 @ 16:00
TEMPO 2210/2216 SCT020 FEW025CB
Clouds
  • Scattered at 2,000' AGL
  • Few at 2,500' AGL
TAF OEKM 212300Z 2200/2306 VRB03KT 7000 FEW020 TEMPO 2200/2206 3000 BR BECMG 2206/2208 23012KT TEMPO 2210/2216 SCT020 FEW025CB
Issued Jan-21 @ 23:00 UTC
(an hour ago)
Valid From Jan-22 @ 00:00 UTC
(13 minutes ago)
Valid To Jan-23 @ 06:00 UTC
(-1 days ago)
Jan-22 @ 00:00 - Jan-22 @ 06:00
Wind Visibility
Variable at 3 knots 7,001 meters
Clouds
  • Few at 2,000' AGL
Temporary Jan-22 @ 00:00 - Jan-22 @ 06:00
Conditions
  • Mist
Becoming Jan-22 @ 06:00 - Jan-23 @ 06:00
Wind Visibility
230° at 12 knots 7,001 meters
Clouds
  • Few at 2,000' AGL
Temporary Jan-22 @ 10:00 - Jan-22 @ 16:00
Clouds
  • Scattered at 2,000' AGL
  • Few at 2,500' AGL